Time;durP1;ratioP1;P1;durP2;ratioP2;P2;SDS_P1;SDS_P2;PMS_P1;PMS_P2;Temp;Humidity;BMP_temperature;BMP_pressure;BME280_temperature;BME280_humidity;BME280_pressure;Samples;Min_cycle;Max_cycle;Signal;HPM_P1;HPM_P2
2022/03/24 00:01:34;;;;;;;33.63;20.10;;;;;;;;;;5029018;28;20431;-80
2022/03/24 00:04:00;;;;;;;31.50;19.88;;;;;;;;;;5029104;28;20625;-80
2022/03/24 00:06:25;;;;;;;35.17;19.90;;;;;;;;;;5032025;28;20044;-79
2022/03/24 00:08:51;;;;;;;31.27;19.75;;;;;;;;;;5032491;28;20571;-80
2022/03/24 00:11:17;;;;;;;31.48;19.80;;;;;;;;;;5025451;28;20041;-80
2022/03/24 00:13:43;;;;;;;33.25;21.10;;;;;;;;;;5041781;28;20373;-80
2022/03/24 00:16:08;;;;;;;32.05;19.98;;;;;;;;;;5028483;28;20121;-79
2022/03/24 00:18:34;;;;;;;30.80;19.60;;;;;;;;;;5041932;28;20072;-80
2022/03/24 00:21:00;;;;;;;32.28;20.27;;;;;;;;;;5027027;28;20522;-80
2022/03/24 00:23:25;;;;;;;31.30;19.60;;;;;;;;;;5038757;28;20045;-80
2022/03/24 00:25:50;;;;;;;32.58;19.77;;;;;;;;;;5024824;28;20103;-80
2022/03/24 00:28:16;;;;;;;32.03;19.23;;;;;;;;;;5030678;28;20036;-80
2022/03/24 00:30:41;;;;;;;32.00;19.42;;;;;;;;;;5023096;28;20038;-80
2022/03/24 00:33:07;;;;;;;34.85;20.20;;;;;;;;;;5042856;28;20543;-80
2022/03/24 00:35:32;;;;;;;32.83;19.10;;;;;;;;;;5027678;28;20041;-79
2022/03/24 00:37:58;;;;;;;32.58;20.50;;;;;;;;;;5028385;28;20114;-79
2022/03/24 00:40:23;;;;;;;32.88;20.58;;;;;;;;;;5024714;28;20041;-79
2022/03/24 00:42:48;;;;;;;31.35;19.80;;;;;;;;;;5039811;28;20036;-79
2022/03/24 00:45:18;;;;;;;33.35;19.73;;;;;;;;;;5039945;28;20041;-79
2022/03/24 00:47:44;;;;;;;32.58;19.17;;;;;;;;;;5031703;28;20488;-79
2022/03/24 00:50:11;;;;;;;32.53;20.27;;;;;;;;;;5029255;28;20032;-79
2022/03/24 00:52:41;;;;;;;30.30;19.88;;;;;;;;;;5042325;28;20039;-79
2022/03/24 00:55:15;;;;;;;31.77;20.17;;;;;;;;;;5033388;28;20041;-79
2022/03/24 00:57:42;;;;;;;33.67;19.35;;;;;;;;;;5005351;28;20488;-80
2022/03/24 01:00:09;;;;;;;32.45;20.65;;;;;;;;;;5012439;28;20041;-79
2022/03/24 01:02:37;;;;;;;30.73;20.13;;;;;;;;;;5022388;28;20041;-80
2022/03/24 01:05:06;;;;;;;33.78;20.92;;;;;;;;;;5037372;28;20511;-79
2022/03/24 01:07:32;;;;;;;34.72;21.35;;;;;;;;;;5046685;28;20044;-80
2022/03/24 01:09:58;;;;;;;33.33;20.67;;;;;;;;;;5044820;28;20848;-79
2022/03/24 01:12:23;;;;;;;31.83;20.17;;;;;;;;;;5045748;28;20576;-79
2022/03/24 01:14:48;;;;;;;32.15;20.33;;;;;;;;;;5025723;28;20116;-79
2022/03/24 01:17:16;;;;;;;32.72;20.92;;;;;;;;;;5041406;28;20061;-80
2022/03/24 01:19:44;;;;;;;34.00;20.38;;;;;;;;;;5028391;28;20052;-79
2022/03/24 01:22:10;;;;;;;32.78;20.42;;;;;;;;;;5030833;28;20037;-79
2022/03/24 01:24:38;;;;;;;33.10;19.75;;;;;;;;;;5027195;28;20049;-79
2022/03/24 01:27:05;;;;;;;33.70;20.13;;;;;;;;;;5022130;28;20046;-79
2022/03/24 01:29:31;;;;;;;34.97;20.47;;;;;;;;;;5024786;28;20034;-79
2022/03/24 01:31:56;;;;;;;34.20;21.02;;;;;;;;;;5025520;28;20286;-77
2022/03/24 01:34:21;;;;;;;32.55;19.63;;;;;;;;;;5028032;28;20090;-78
2022/03/24 01:36:47;;;;;;;32.70;19.70;;;;;;;;;;5044422;28;20049;-78
2022/03/24 01:39:12;;;;;;;31.95;20.13;;;;;;;;;;5030754;28;20042;-78
2022/03/24 01:41:40;;;;;;;33.88;20.83;;;;;;;;;;5046589;28;20056;-79
2022/03/24 01:44:09;;;;;;;;;;;;;;;;;;5044483;28;20157;-79
2022/03/24 01:46:35;;;;;;;33.78;19.77;;;;;;;;;;5045449;28;19920;-79
2022/03/24 01:49:00;;;;;;;38.95;21.20;;;;;;;;;;5031707;28;20041;-79
2022/03/24 01:51:27;;;;;;;33.10;20.85;;;;;;;;;;5042044;28;20036;-79
2022/03/24 01:53:57;;;;;;;30.85;19.95;;;;;;;;;;5043482;28;20046;-79
2022/03/24 01:56:23;;;;;;;30.50;19.77;;;;;;;;;;5045078;28;20037;-79
2022/03/24 01:58:50;;;;;;;37.78;22.70;;;;;;;;;;5032081;28;20040;-79
2022/03/24 02:01:27;;;;;;;35.95;21.95;;;;;;;;;;5027542;28;20045;-79
2022/03/24 02:03:54;;;;;;;36.88;20.38;;;;;;;;;;5047993;28;20409;-79
2022/03/24 02:06:19;;;;;;;32.75;20.73;;;;;;;;;;5031642;28;20036;-79
2022/03/24 02:08:45;;;;;;;35.15;21.73;;;;;;;;;;5029703;28;20105;-79
2022/03/24 02:11:11;;;;;;;33.17;21.25;;;;;;;;;;5049429;28;20113;-79
2022/03/24 02:13:37;;;;;;;34.33;21.30;;;;;;;;;;5025555;28;20124;-78
2022/03/24 02:16:10;;;;;;;34.60;22.05;;;;;;;;;;5041236;28;20037;-80
2022/03/24 02:18:35;;;;;;;33.50;21.55;;;;;;;;;;5028235;28;20032;-80
2022/03/24 02:21:00;;;;;;;35.22;22.05;;;;;;;;;;5026352;28;20387;-80
2022/03/24 02:23:26;;;;;;;36.22;23.42;;;;;;;;;;5043902;28;20069;-79
2022/03/24 02:25:53;;;;;;;38.35;21.88;;;;;;;;;;5030531;28;20101;-79
2022/03/24 02:28:18;;;;;;;34.90;22.53;;;;;;;;;;5030712;28;20056;-79
2022/03/24 02:30:47;;;;;;;34.92;22.73;;;;;;;;;;5027526;28;20396;-78
2022/03/24 02:33:13;;;;;;;34.53;22.80;;;;;;;;;;5042305;28;20044;-78
2022/03/24 02:35:38;;;;;;;36.30;22.77;;;;;;;;;;5042597;28;20669;-79
2022/03/24 02:38:04;;;;;;;35.00;21.60;;;;;;;;;;5042663;28;20817;-78
2022/03/24 02:40:29;;;;;;;35.47;21.40;;;;;;;;;;5041572;28;20033;-79
2022/03/24 02:42:54;;;;;;;36.35;22.92;;;;;;;;;;5041751;28;20037;-79
2022/03/24 02:45:20;;;;;;;36.05;22.08;;;;;;;;;;5030626;28;20048;-78
2022/03/24 02:47:46;;;;;;;38.25;21.75;;;;;;;;;;5028722;28;20915;-78
2022/03/24 02:50:12;;;;;;;38.20;23.20;;;;;;;;;;5040636;28;20341;-79
2022/03/24 02:52:38;;;;;;;39.53;22.27;;;;;;;;;;5030627;28;20039;-78
2022/03/24 02:55:04;;;;;;;36.45;22.60;;;;;;;;;;5042622;28;20108;-78
2022/03/24 02:57:30;;;;;;;35.30;22.05;;;;;;;;;;5042504;28;20044;-79
2022/03/24 02:59:56;;;;;;;35.80;22.35;;;;;;;;;;5044395;28;20037;-79
2022/03/24 03:02:21;;;;;;;35.97;22.67;;;;;;;;;;5030500;28;20511;-79
2022/03/24 03:04:53;;;;;;;35.08;23.15;;;;;;;;;;5026182;28;20438;-79
2022/03/24 03:07:20;;;;;;;36.75;22.75;;;;;;;;;;5038914;28;20053;-79
2022/03/24 03:09:46;;;;;;;36.00;22.98;;;;;;;;;;5031706;28;20036;-79
2022/03/24 03:12:11;;;;;;;34.80;22.63;;;;;;;;;;5044000;28;20041;-78
2022/03/24 03:14:38;;;;;;;37.67;23.75;;;;;;;;;;5043051;28;20460;-78
2022/03/24 03:17:04;;;;;;;37.78;22.70;;;;;;;;;;5026636;28;20083;-79
2022/03/24 03:19:29;;;;;;;39.95;23.95;;;;;;;;;;5047777;28;20041;-79
2022/03/24 03:21:55;;;;;;;37.40;23.42;;;;;;;;;;5041138;28;20870;-79
2022/03/24 03:24:23;;;;;;;36.15;23.08;;;;;;;;;;5041129;28;20037;-79
2022/03/24 03:26:50;;;;;;;38.35;23.40;;;;;;;;;;5023323;28;20163;-79
2022/03/24 03:29:17;;;;;;;39.10;23.35;;;;;;;;;;5029489;28;20041;-79
2022/03/24 03:31:42;;;;;;;38.38;24.13;;;;;;;;;;5029811;28;20032;-79
2022/03/24 03:34:09;;;;;;;40.72;24.77;;;;;;;;;;5028468;28;20068;-79
2022/03/24 03:36:35;;;;;;;39.20;23.80;;;;;;;;;;5042567;28;20381;-79
2022/03/24 03:39:00;;;;;;;37.55;23.63;;;;;;;;;;5038177;28;20041;-79
2022/03/24 03:41:28;;;;;;;39.63;24.30;;;;;;;;;;5029478;28;20040;-79
2022/03/24 03:43:57;;;;;;;38.17;23.50;;;;;;;;;;5042504;28;20452;-79
2022/03/24 03:46:24;;;;;;;37.90;22.83;;;;;;;;;;5036912;28;20496;-79
2022/03/24 03:48:49;;;;;;;37.45;23.67;;;;;;;;;;5022314;28;20040;-79
2022/03/24 03:51:15;;;;;;;36.42;23.58;;;;;;;;;;5040471;28;20036;-79
2022/03/24 03:53:41;;;;;;;42.92;24.77;;;;;;;;;;5027539;28;20969;-79
2022/03/24 03:56:07;;;;;;;39.00;24.15;;;;;;;;;;5036340;28;20203;-79
2022/03/24 03:58:36;;;;;;;39.90;23.83;;;;;;;;;;5018055;28;20188;-80
2022/03/24 04:01:05;;;;;;;45.53;24.63;;;;;;;;;;5004800;28;20048;-79
2022/03/24 04:03:35;;;;;;;39.50;24.15;;;;;;;;;;5022215;28;20187;-80
2022/03/24 04:06:06;;;;;;;38.72;23.63;;;;;;;;;;5008193;28;20061;-79
2022/03/24 04:08:32;;;;;;;41.70;24.33;;;;;;;;;;5042381;28;20044;-81
2022/03/24 04:10:58;;;;;;;40.45;24.60;;;;;;;;;;5029968;28;20037;-78
2022/03/24 04:13:24;;;;;;;38.13;24.40;;;;;;;;;;5028621;28;20083;-79
2022/03/24 04:15:50;;;;;;;39.80;24.10;;;;;;;;;;5042519;28;20580;-79
2022/03/24 04:18:16;;;;;;;41.28;24.60;;;;;;;;;;5031211;28;20063;-81
2022/03/24 04:20:42;;;;;;;37.17;24.05;;;;;;;;;;5040923;28;20056;-79
2022/03/24 04:23:08;;;;;;;38.75;24.63;;;;;;;;;;5036567;28;20036;-79
2022/03/24 04:25:34;;;;;;;41.55;25.52;;;;;;;;;;5030898;28;20044;-79
2022/03/24 04:28:00;;;;;;;40.83;23.15;;;;;;;;;;5023115;28;20118;-80
2022/03/24 04:30:26;;;;;;;40.80;24.60;;;;;;;;;;5036198;28;20052;-79
2022/03/24 04:32:52;;;;;;;41.28;26.15;;;;;;;;;;5025792;28;20570;-80
2022/03/24 04:35:17;;;;;;;40.60;25.60;;;;;;;;;;5017216;28;20055;-80
2022/03/24 04:37:43;;;;;;;42.30;25.50;;;;;;;;;;5041153;28;20036;-80
2022/03/24 04:40:15;;;;;;;41.00;25.45;;;;;;;;;;5041966;28;20037;-80
2022/03/24 04:42:41;;;;;;;38.20;24.67;;;;;;;;;;5007472;28;20044;-80
2022/03/24 04:45:08;;;;;;;39.80;25.30;;;;;;;;;;5020974;28;20036;-79
2022/03/24 04:47:34;;;;;;;40.63;25.52;;;;;;;;;;5031888;28;20128;-80
2022/03/24 04:50:04;;;;;;;40.60;25.45;;;;;;;;;;5029502;28;20087;-79
2022/03/24 04:52:29;;;;;;;39.97;24.88;;;;;;;;;;5033023;28;20041;-78
2022/03/24 04:54:54;;;;;;;41.58;25.92;;;;;;;;;;5027554;28;20390;-77
2022/03/24 04:57:20;;;;;;;39.45;24.88;;;;;;;;;;5026532;28;20456;-77
2022/03/24 04:59:45;;;;;;;43.40;26.10;;;;;;;;;;5039022;28;20033;-79
2022/03/24 05:02:15;;;;;;;41.65;26.55;;;;;;;;;;5031291;28;20041;-77
2022/03/24 05:04:43;;;;;;;40.17;25.27;;;;;;;;;;5020919;28;20045;-78
2022/03/24 05:07:11;;;;;;;43.83;25.67;;;;;;;;;;5042058;28;20090;-77
2022/03/24 05:09:37;;;;;;;39.42;24.30;;;;;;;;;;5043636;28;20492;-77
2022/03/24 05:12:03;;;;;;;40.72;25.83;;;;;;;;;;5046489;28;20041;-77
2022/03/24 05:14:29;;;;;;;41.67;25.50;;;;;;;;;;5044101;28;20559;-78
2022/03/24 05:16:54;;;;;;;41.33;26.05;;;;;;;;;;5033396;28;20052;-78
2022/03/24 05:19:20;;;;;;;40.67;24.50;;;;;;;;;;5030630;28;20037;-78
2022/03/24 05:21:45;;;;;;;42.65;26.20;;;;;;;;;;5048895;28;20041;-79
2022/03/24 05:24:12;;;;;;;40.72;26.35;;;;;;;;;;5053012;28;20104;-78
2022/03/24 05:26:38;;;;;;;42.45;25.90;;;;;;;;;;5029965;28;20965;-77
2022/03/24 05:29:03;;;;;;;41.65;25.80;;;;;;;;;;5050857;28;20040;-78
2022/03/24 05:31:28;;;;;;;45.15;26.75;;;;;;;;;;5030517;28;20048;-80
2022/03/24 05:33:54;;;;;;;45.10;27.20;;;;;;;;;;5050085;28;20037;-80
2022/03/24 05:36:19;;;;;;;42.42;26.25;;;;;;;;;;5034721;28;20493;-80
2022/03/24 05:38:44;;;;;;;45.30;27.17;;;;;;;;;;5032140;28;20038;-80
2022/03/24 05:41:12;;;;;;;42.45;27.52;;;;;;;;;;5038223;28;20447;-80
2022/03/24 05:43:38;;;;;;;40.70;25.92;;;;;;;;;;5032352;28;20069;-80
2022/03/24 05:46:03;;;;;;;44.75;27.08;;;;;;;;;;5031770;28;20128;-79
2022/03/24 05:48:29;;;;;;;43.83;27.55;;;;;;;;;;5034584;28;20450;-79
2022/03/24 05:50:54;;;;;;;43.10;27.73;;;;;;;;;;5046117;28;20041;-80
2022/03/24 05:53:20;;;;;;;43.42;27.10;;;;;;;;;;5029080;28;20095;-79
2022/03/24 05:55:45;;;;;;;43.58;27.33;;;;;;;;;;5031885;28;20458;-79
2022/03/24 05:58:12;;;;;;;44.67;27.73;;;;;;;;;;5029784;28;20036;-79
2022/03/24 06:00:40;;;;;;;43.80;27.63;;;;;;;;;;5032182;28;20036;-79
2022/03/24 06:03:06;;;;;;;48.60;27.50;;;;;;;;;;5033626;28;20085;-79
2022/03/24 06:05:32;;;;;;;47.40;27.85;;;;;;;;;;5032375;28;20032;-79
2022/03/24 06:08:01;;;;;;;42.30;27.25;;;;;;;;;;5028944;28;20065;-79
2022/03/24 06:10:27;;;;;;;46.42;27.55;;;;;;;;;;5028226;28;20057;-79
2022/03/24 06:12:52;;;;;;;46.75;27.45;;;;;;;;;;5033745;28;20040;-80
2022/03/24 06:15:19;;;;;;;39.90;26.00;;;;;;;;;;5026865;28;20111;-80
2022/03/24 06:17:44;;;;;;;43.03;27.58;;;;;;;;;;5030829;28;20099;-78
2022/03/24 06:20:11;;;;;;;53.28;28.08;;;;;;;;;;5029336;28;20044;-78
2022/03/24 06:23:02;;;;;;;47.45;27.23;;;;;;;;;;5028230;28;20032;-79
2022/03/24 06:25:30;;;;;;;48.67;28.80;;;;;;;;;;5019688;28;20095;-78
2022/03/24 06:27:55;;;;;;;47.55;28.40;;;;;;;;;;5034104;28;20435;-78
2022/03/24 06:30:21;;;;;;;50.08;28.83;;;;;;;;;;5042145;28;20048;-78
2022/03/24 06:32:46;;;;;;;45.70;27.63;;;;;;;;;;5032871;28;20059;-77
2022/03/24 06:35:12;;;;;;;54.25;29.83;;;;;;;;;;5029777;28;20039;-78
2022/03/24 06:37:39;;;;;;;46.17;28.98;;;;;;;;;;5031518;28;20032;-78
2022/03/24 06:40:06;;;;;;;;;;;;;;;;;;5030855;28;20041;-78
2022/03/24 06:42:31;;;;;;;49.92;29.25;;;;;;;;;;5048791;28;19923;-77
2022/03/24 06:44:56;;;;;;;49.15;29.63;;;;;;;;;;5030793;28;20037;-79
2022/03/24 06:47:22;;;;;;;52.00;30.40;;;;;;;;;;5031569;28;20123;-79
2022/03/24 06:49:47;;;;;;;47.05;29.02;;;;;;;;;;5044588;28;20036;-79
2022/03/24 06:52:12;;;;;;;44.55;29.08;;;;;;;;;;5031615;28;20489;-80
2022/03/24 06:54:38;;;;;;;45.53;28.92;;;;;;;;;;5025137;28;20052;-78
2022/03/24 06:57:03;;;;;;;49.05;30.38;;;;;;;;;;5028346;28;20039;-78
2022/03/24 06:59:29;;;;;;;52.42;29.52;;;;;;;;;;5031234;28;20515;-79
2022/03/24 07:01:54;;;;;;;49.30;29.67;;;;;;;;;;5033448;28;20116;-80
2022/03/24 07:04:19;;;;;;;46.22;28.65;;;;;;;;;;5029431;28;20095;-79
2022/03/24 07:06:44;;;;;;;47.08;29.80;;;;;;;;;;5032131;28;20055;-79
2022/03/24 07:09:10;;;;;;;48.03;30.38;;;;;;;;;;5026877;28;20032;-81
2022/03/24 07:11:35;;;;;;;47.33;29.88;;;;;;;;;;5034584;28;20121;-80
2022/03/24 07:14:01;;;;;;;44.70;29.10;;;;;;;;;;5029963;28;20044;-80
2022/03/24 07:16:27;;;;;;;45.03;28.85;;;;;;;;;;5029708;28;20029;-80
2022/03/24 07:18:52;;;;;;;46.50;30.02;;;;;;;;;;5030367;28;20103;-80
2022/03/24 07:21:17;;;;;;;43.80;29.33;;;;;;;;;;5034804;28;20037;-81
2022/03/24 07:23:45;;;;;;;47.15;30.00;;;;;;;;;;5030540;28;20037;-80
2022/03/24 07:26:11;;;;;;;44.17;28.83;;;;;;;;;;5049452;28;20052;-81
2022/03/24 07:28:36;;;;;;;46.45;30.10;;;;;;;;;;5030395;28;20037;-82
2022/03/24 07:31:15;;;;;;;43.67;29.70;;;;;;;;;;5031862;28;20057;-81
2022/03/24 07:33:40;;;;;;;46.08;29.60;;;;;;;;;;5030196;28;20052;-79
2022/03/24 07:36:07;;;;;;;45.03;30.45;;;;;;;;;;5028293;28;20105;-79
2022/03/24 07:38:33;;;;;;;43.45;29.48;;;;;;;;;;5028169;28;20053;-80
2022/03/24 07:40:58;;;;;;;44.13;29.70;;;;;;;;;;5028331;28;20032;-79
2022/03/24 07:43:23;;;;;;;46.70;30.67;;;;;;;;;;5041441;28;20492;-79
2022/03/24 07:45:49;;;;;;;43.53;28.92;;;;;;;;;;5026796;28;20033;-80
2022/03/24 07:48:20;;;;;;;44.15;29.58;;;;;;;;;;5040017;28;20060;-79
2022/03/24 07:50:47;;;;;;;44.15;28.90;;;;;;;;;;5040162;28;20037;-79
2022/03/24 07:53:12;;;;;;;42.10;29.95;;;;;;;;;;5046063;28;20052;-80
2022/03/24 07:55:40;;;;;;;42.55;29.40;;;;;;;;;;5034991;28;20403;-78
2022/03/24 07:58:05;;;;;;;43.97;28.70;;;;;;;;;;5027449;28;20581;-79
2022/03/24 08:00:31;;;;;;;42.67;28.85;;;;;;;;;;5030141;28;20037;-79
2022/03/24 08:02:57;;;;;;;43.67;30.23;;;;;;;;;;5024959;28;20036;-79
2022/03/24 08:05:22;;;;;;;42.80;29.13;;;;;;;;;;5042329;28;20036;-78
2022/03/24 08:07:47;;;;;;;44.58;29.65;;;;;;;;;;5026841;28;20187;-78
2022/03/24 08:10:13;;;;;;;40.65;28.42;;;;;;;;;;5029438;28;20098;-80
2022/03/24 08:12:38;;;;;;;39.03;28.08;;;;;;;;;;5045389;28;20459;-79
2022/03/24 08:15:04;;;;;;;39.92;28.85;;;;;;;;;;5023943;28;20120;-79
2022/03/24 08:17:29;;;;;;;41.08;28.85;;;;;;;;;;5042155;28;20065;-79
2022/03/24 08:19:54;;;;;;;42.42;29.23;;;;;;;;;;5031140;28;20047;-79
2022/03/24 08:22:20;;;;;;;41.08;28.60;;;;;;;;;;5043454;28;20071;-78
2022/03/24 08:24:48;;;;;;;45.25;28.85;;;;;;;;;;5028169;28;20051;-80
2022/03/24 08:27:13;;;;;;;40.67;27.58;;;;;;;;;;5040611;28;20033;-80
2022/03/24 08:29:40;;;;;;;37.88;28.00;;;;;;;;;;5030921;28;20056;-79
2022/03/24 08:32:05;;;;;;;37.33;27.40;;;;;;;;;;5043075;28;20506;-79
2022/03/24 08:34:31;;;;;;;39.40;27.80;;;;;;;;;;5042675;28;20033;-79
2022/03/24 08:36:56;;;;;;;40.80;28.90;;;;;;;;;;5020997;28;20033;-79
2022/03/24 08:39:21;;;;;;;39.33;28.40;;;;;;;;;;5022415;28;20045;-79
2022/03/24 08:41:47;;;;;;;36.35;27.70;;;;;;;;;;5027582;28;20041;-80
2022/03/24 08:44:12;;;;;;;37.55;28.15;;;;;;;;;;5023947;28;20124;-79
2022/03/24 08:46:38;;;;;;;39.72;28.88;;;;;;;;;;5042133;28;20075;-79
2022/03/24 08:49:03;;;;;;;40.10;27.70;;;;;;;;;;5025780;28;20045;-79
2022/03/24 08:51:28;;;;;;;43.80;26.35;;;;;;;;;;5027896;28;20044;-79
2022/03/24 08:53:54;;;;;;;46.10;26.17;;;;;;;;;;5031057;28;20045;-80
2022/03/24 08:56:19;;;;;;;37.45;25.85;;;;;;;;;;5030730;28;20045;-81
2022/03/24 08:58:45;;;;;;;35.17;25.80;;;;;;;;;;5043295;28;20473;-80
2022/03/24 09:01:10;;;;;;;38.58;26.80;;;;;;;;;;5029390;28;20035;-80
2022/03/24 09:03:37;;;;;;;33.83;26.20;;;;;;;;;;5029084;28;20317;-80
2022/03/24 09:06:02;;;;;;;33.92;25.10;;;;;;;;;;5027266;28;20119;-79
2022/03/24 09:08:27;;;;;;;37.20;26.98;;;;;;;;;;5025565;28;20554;-80
2022/03/24 09:10:53;;;;;;;34.75;25.98;;;;;;;;;;5027557;28;20366;-82
2022/03/24 09:13:18;;;;;;;39.20;28.98;;;;;;;;;;5025193;28;20140;-80
2022/03/24 09:15:45;;;;;;;36.47;26.88;;;;;;;;;;5019497;28;20516;-80
2022/03/24 09:18:10;;;;;;;40.65;27.48;;;;;;;;;;5024396;28;20045;-80
2022/03/24 09:20:36;;;;;;;34.13;24.30;;;;;;;;;;5025808;28;20495;-80
2022/03/24 09:23:01;;;;;;;33.28;25.77;;;;;;;;;;5029901;28;20488;-81
2022/03/24 09:25:28;;;;;;;30.38;24.17;;;;;;;;;;5025197;28;20052;-80
2022/03/24 09:27:54;;;;;;;31.20;24.47;;;;;;;;;;5026972;28;20048;-80
2022/03/24 09:30:20;;;;;;;27.00;21.40;;;;;;;;;;5023876;28;20385;-81
2022/03/24 09:32:47;;;;;;;29.98;22.30;;;;;;;;;;5041577;28;20045;-81
2022/03/24 09:35:13;;;;;;;28.17;21.80;;;;;;;;;;5044485;28;20154;-80
2022/03/24 09:37:38;;;;;;;28.08;22.25;;;;;;;;;;5043020;28;20036;-80
2022/03/24 09:40:06;;;;;;;29.02;22.38;;;;;;;;;;5043188;28;20041;-80
2022/03/24 09:42:32;;;;;;;34.67;23.77;;;;;;;;;;5044804;28;20097;-80
2022/03/24 09:45:01;;;;;;;25.70;20.87;;;;;;;;;;5025500;28;20033;-80
2022/03/24 09:47:28;;;;;;;28.13;22.23;;;;;;;;;;5004939;28;20050;-80
2022/03/24 09:49:53;;;;;;;33.60;22.10;;;;;;;;;;5035042;28;20052;-80
2022/03/24 09:52:19;;;;;;;30.58;23.23;;;;;;;;;;5002974;28;20038;-80
2022/03/24 09:54:47;;;;;;;31.10;21.95;;;;;;;;;;5013587;28;20065;-81
2022/03/24 09:57:12;;;;;;;28.55;22.23;;;;;;;;;;5047761;28;20400;-80
2022/03/24 09:59:38;;;;;;;28.63;21.20;;;;;;;;;;5037616;28;20099;-80
2022/03/24 10:02:05;;;;;;;32.60;20.58;;;;;;;;;;5028080;28;20573;-81
2022/03/24 10:04:50;;;;;;;29.80;20.60;;;;;;;;;;5027891;28;20077;-79
2022/03/24 10:07:20;;;;;;;30.33;20.00;;;;;;;;;;5009033;28;20788;-79
2022/03/24 10:09:47;;;;;;;31.17;21.60;;;;;;;;;;5027574;28;20033;-79
2022/03/24 10:12:24;;;;;;;30.77;21.92;;;;;;;;;;5028721;28;20111;-80
2022/03/24 10:14:59;;;;;;;29.53;21.37;;;;;;;;;;5026259;28;20665;-79
2022/03/24 10:17:24;;;;;;;32.97;21.08;;;;;;;;;;5047237;28;20038;-80
2022/03/24 10:20:04;;;;;;;30.42;21.60;;;;;;;;;;5032580;28;20041;-79
2022/03/24 10:22:30;;;;;;;27.60;19.05;;;;;;;;;;5050070;28;20041;-80
2022/03/24 10:24:55;;;;;;;29.73;17.85;;;;;;;;;;5031529;28;20085;-80
2022/03/24 10:27:23;;;;;;;30.48;17.63;;;;;;;;;;5044753;28;20037;-80
2022/03/24 10:29:54;;;;;;;32.05;17.45;;;;;;;;;;5029874;28;20488;-80
2022/03/24 10:32:19;;;;;;;28.33;18.33;;;;;;;;;;5026485;28;20033;-79
2022/03/24 10:34:50;;;;;;;28.13;17.58;;;;;;;;;;5030373;28;20044;-79
2022/03/24 10:37:17;;;;;;;25.85;17.88;;;;;;;;;;5045691;28;20106;-79
2022/03/24 10:40:06;;;;;;;25.48;18.27;;;;;;;;;;5030269;28;20655;-78
2022/03/24 10:42:33;;;;;;;30.42;18.60;;;;;;;;;;5040080;28;20103;-79
2022/03/24 10:45:14;;;;;;;30.05;18.67;;;;;;;;;;5047577;28;20037;-78
2022/03/24 10:47:49;;;;;;;24.05;18.27;;;;;;;;;;5023425;28;20541;-79
2022/03/24 10:50:29;;;;;;;25.33;16.83;;;;;;;;;;5030876;28;20045;-80
2022/03/24 10:53:01;;;;;;;23.02;16.05;;;;;;;;;;5043260;28;20033;-79
2022/03/24 10:55:35;;;;;;;22.38;15.40;;;;;;;;;;5032871;28;20072;-79
2022/03/24 10:58:03;;;;;;;21.75;13.95;;;;;;;;;;5047302;28;20045;-79
2022/03/24 11:00:29;;;;;;;18.55;12.85;;;;;;;;;;5040397;28;20059;-79
2022/03/24 11:02:55;;;;;;;19.00;12.80;;;;;;;;;;5030426;28;20044;-80
2022/03/24 11:05:20;;;;;;;19.95;13.00;;;;;;;;;;5019947;28;20046;-79
2022/03/24 11:07:53;;;;;;;20.05;13.40;;;;;;;;;;5018752;28;20037;-80
2022/03/24 11:10:18;;;;;;;18.30;12.30;;;;;;;;;;5001328;28;20052;-79
2022/03/24 11:12:44;;;;;;;17.52;10.98;;;;;;;;;;5005304;28;20042;-80
2022/03/24 11:15:10;;;;;;;19.65;11.63;;;;;;;;;;5000042;28;20050;-80
2022/03/24 11:17:37;;;;;;;19.50;11.40;;;;;;;;;;5046834;28;20388;-79
2022/03/24 11:20:04;;;;;;;19.77;12.15;;;;;;;;;;5043743;28;20028;-80
2022/03/24 11:22:52;;;;;;;22.80;14.25;;;;;;;;;;5020488;28;20059;-80
2022/03/24 11:25:18;;;;;;;20.40;13.05;;;;;;;;;;5027663;28;20064;-81
2022/03/24 11:27:44;;;;;;;24.20;13.13;;;;;;;;;;5043836;28;20102;-81
2022/03/24 11:30:11;;;;;;;19.92;13.55;;;;;;;;;;5030557;28;20043;-81
2022/03/24 11:32:41;;;;;;;;;;;;;;;;;;5046769;28;20029;-81
2022/03/24 11:35:08;;;;;;;17.33;11.32;;;;;;;;;;5025955;28;20524;-81
2022/03/24 11:37:34;;;;;;;16.50;11.35;;;;;;;;;;5030438;28;20055;-80
2022/03/24 11:40:07;;;;;;;19.75;11.57;;;;;;;;;;5025660;28;20041;-80
2022/03/24 11:42:36;;;;;;;19.45;11.07;;;;;;;;;;5045738;28;20047;-81
2022/03/24 11:45:28;;;;;;;18.70;12.23;;;;;;;;;;5027557;28;20037;-80
2022/03/24 11:47:59;;;;;;;18.05;11.35;;;;;;;;;;5024042;28;20437;-80
2022/03/24 11:50:41;;;;;;;18.48;11.52;;;;;;;;;;5044677;28;20045;-81
2022/03/24 11:53:13;;;;;;;16.60;11.82;;;;;;;;;;5033431;28;20845;-80
2022/03/24 11:55:38;;;;;;;19.58;11.52;;;;;;;;;;5039870;28;20507;-81
2022/03/24 11:58:04;;;;;;;15.40;11.18;;;;;;;;;;5026248;28;20049;-80
2022/03/24 12:00:30;;;;;;;21.80;11.18;;;;;;;;;;5026661;28;20041;-80
2022/03/24 12:02:59;;;;;;;17.73;12.40;;;;;;;;;;5045610;28;20114;-80
2022/03/24 12:05:53;;;;;;;26.80;11.70;;;;;;;;;;5028315;28;20041;-80
2022/03/24 12:08:28;;;;;;;16.80;10.32;;;;;;;;;;5023838;28;20474;-79
2022/03/24 12:10:54;;;;;;;18.50;10.88;;;;;;;;;;5038682;28;20029;-80
2022/03/24 12:13:21;;;;;;;18.00;11.10;;;;;;;;;;5027962;28;20037;-80
2022/03/24 12:16:12;;;;;;;21.35;11.05;;;;;;;;;;5025916;28;20037;-81
2022/03/24 12:18:42;;;;;;;21.85;12.18;;;;;;;;;;5041807;28;20044;-80
2022/03/24 12:21:08;;;;;;;22.98;13.70;;;;;;;;;;5045640;28;20062;-80
2022/03/24 12:24:12;;;;;;;23.70;12.52;;;;;;;;;;5040889;28;20345;-80
2022/03/24 12:26:47;;;;;;;25.10;12.10;;;;;;;;;;5044950;28;20121;-80
2022/03/24 12:29:12;;;;;;;21.92;12.23;;;;;;;;;;5033926;28;20029;-80
2022/03/24 12:32:00;;;;;;;28.70;13.60;;;;;;;;;;5044677;28;20548;-80
2022/03/24 12:34:29;;;;;;;23.13;13.00;;;;;;;;;;5029484;28;20303;-80
2022/03/24 12:36:55;;;;;;;24.33;12.77;;;;;;;;;;5045047;28;20048;-79
2022/03/24 12:39:34;;;;;;;22.38;12.30;;;;;;;;;;5027511;28;20452;-80
2022/03/24 12:42:13;;;;;;;21.73;12.93;;;;;;;;;;5030040;28;20037;-80
2022/03/24 12:44:58;;;;;;;25.65;13.20;;;;;;;;;;5045677;28;20167;-79
2022/03/24 12:47:42;;;;;;;23.52;12.88;;;;;;;;;;5027547;28;20037;-79
2022/03/24 12:50:09;;;;;;;26.50;12.93;;;;;;;;;;5027644;28;20094;-80
2022/03/24 12:52:57;;;;;;;23.58;13.02;;;;;;;;;;5030559;28;20488;-80
2022/03/24 12:55:40;;;;;;;29.63;12.88;;;;;;;;;;5023989;28;20036;-81
2022/03/24 12:58:09;;;;;;;24.17;12.45;;;;;;;;;;5028582;28;20426;-79
2022/03/24 13:00:40;;;;;;;26.25;13.50;;;;;;;;;;5041622;28;20045;-79
2022/03/24 13:03:05;;;;;;;22.27;12.80;;;;;;;;;;5030915;28;20060;-80
2022/03/24 13:05:32;;;;;;;26.13;13.85;;;;;;;;;;5028496;28;20029;-79
2022/03/24 13:07:59;;;;;;;23.53;13.47;;;;;;;;;;5029360;28;20059;-80
2022/03/24 13:10:26;;;;;;;23.10;13.40;;;;;;;;;;5025074;28;20270;-80
2022/03/24 13:12:58;;;;;;;22.10;12.82;;;;;;;;;;5031848;28;20037;-79
2022/03/24 13:15:26;;;;;;;26.73;13.07;;;;;;;;;;5031147;28;20033;-80
2022/03/24 13:17:54;;;;;;;24.50;13.23;;;;;;;;;;5025543;28;20178;-80
2022/03/24 13:20:20;;;;;;;24.70;12.85;;;;;;;;;;5030175;28;20094;-79
2022/03/24 13:22:48;;;;;;;21.88;12.90;;;;;;;;;;5023844;28;20998;-80
2022/03/24 13:25:17;;;;;;;23.85;12.88;;;;;;;;;;5026074;28;20903;-79
2022/03/24 13:27:46;;;;;;;22.05;13.13;;;;;;;;;;4997507;28;20358;-80
2022/03/24 13:30:14;;;;;;;34.83;14.75;;;;;;;;;;5041828;28;20388;-80
2022/03/24 13:32:41;;;;;;;27.02;13.43;;;;;;;;;;5024699;28;20496;-79
2022/03/24 13:35:09;;;;;;;25.42;13.10;;;;;;;;;;5014541;28;20124;-80
2022/03/24 13:37:48;;;;;;;22.67;13.27;;;;;;;;;;5044839;28;20907;-80
2022/03/24 13:40:16;;;;;;;31.08;14.13;;;;;;;;;;5032403;28;20132;-80
2022/03/24 13:42:42;;;;;;;;;;;;;;;;;;5021996;28;20087;-80
2022/03/24 13:45:10;;;;;;;24.25;13.25;;;;;;;;;;5027287;28;20691;-80
2022/03/24 13:47:40;;;;;;;23.10;13.20;;;;;;;;;;5029279;28;20049;-80
2022/03/24 13:50:06;;;;;;;23.90;12.65;;;;;;;;;;5051167;28;20457;-80
2022/03/24 13:52:43;;;;;;;20.13;11.27;;;;;;;;;;5024817;28;20041;-77
2022/03/24 13:55:17;;;;;;;18.80;12.65;;;;;;;;;;5049043;28;20133;-80
2022/03/24 13:57:50;;;;;;;18.60;11.43;;;;;;;;;;5022033;28;20045;-79
2022/03/24 14:00:38;;;;;;;22.98;11.57;;;;;;;;;;5032838;28;20049;-79
2022/03/24 14:03:12;;;;;;;34.20;12.57;;;;;;;;;;5034035;28;20051;-79
2022/03/24 14:05:49;;;;;;;35.78;15.38;;;;;;;;;;5048086;28;20044;-79
2022/03/24 14:08:27;;;;;;;23.88;13.32;;;;;;;;;;5043813;28;20671;-79
2022/03/24 14:10:54;;;;;;;22.75;12.80;;;;;;;;;;5042950;28;20403;-80
2022/03/24 14:13:25;;;;;;;27.45;12.43;;;;;;;;;;5031440;28;20502;-79
2022/03/24 14:15:50;;;;;;;22.90;11.45;;;;;;;;;;5027078;28;20464;-80
2022/03/24 14:18:22;;;;;;;21.20;12.32;;;;;;;;;;5033197;28;20199;-80
2022/03/24 14:20:51;;;;;;;21.30;12.23;;;;;;;;;;5040204;28;20056;-78
2022/03/24 14:23:28;;;;;;;21.13;12.52;;;;;;;;;;5043140;28;20055;-78